METAR Data
IDs: Format: Raw Decoded Include TAF

Data at: 2110 UTC 06 Dec 2019

KBCE 062053Z AUTO 13007KT 10SM OVC012 02/M02 A3032 RMK AO2 SLP265 T00171017 58015
KBCE 061953Z AUTO 16007KT 10SM OVC012 02/M02 A3035 RMK AO2 SLP274 T00171017
KBCE 061853Z AUTO 16007KT 10SM BKN012 01/M02 A3036 RMK AO2 SLP270 T00111017
KBCE 061828Z AUTO 15005KT 10SM BKN012 00/M02 A3036 RMK AO2 T00001022
KBCE 061818Z AUTO 15006KT 10SM SCT012 M01/M02 A3037 RMK AO2 T10061022
KBCE 061806Z AUTO 16008KT 10SM BKN011 M01/M03 A3037 RMK AO2 T10111028
KBCE 061753Z AUTO 00000KT 10SM SCT011 M04/M06 A3038 RMK AO2 SLP291 I6000 T10391061 11039 21139 51011
KBCE 061653Z AUTO 21004KT 10SM CLR M09/M09 A3037 RMK AO2 SLP326 T10891094
KBCE 061553Z AUTO 00000KT 10SM CLR M11/M11 A3036 RMK AO2 SLP316 T11061111
KBCE 061453Z AUTO 00000KT 10SM CLR M12/M13 A3033 RMK AO2 SLP307 I3000 T11171133 53009
KBCE 061353Z AUTO 21004KT 5SM BR CLR M13/M14 A3032 RMK AO2 SLP298 I1000 T11281144
KBCE 061351Z AUTO 23003KT 3SM BR CLR M13/M14 A3032 RMK AO2
KBCE 061341Z AUTO 24003KT 1 3/4SM BR CLR M14/M16 A3031 RMK AO2 T11391156
KBCE 061310Z AUTO 00000KT 10SM SCT002 M13/M14 A3030 RMK AO2 T11281144
KBCE 061253Z AUTO 23003KT 10SM OVC002 M13/M14 A3030 RMK AO2 SLP283 T11281139
KBCE 061153Z AUTO 24004KT 6SM BR BKN001 M13/M14 A3030 RMK AO2 SLP272 I1000 I6000 T11281139 11056 21128 55002
KBCE 061144Z AUTO 25004KT 7SM SCT001 M13/M14 A3030 RMK AO2 I1000 T11281139
KBCE 061053Z AUTO 00000KT 10SM CLR M12/M13 A3029 RMK AO2 SLP262 T11171133
KBCE 060953Z AUTO 23003KT 10SM CLR M12/M14 A3031 RMK AO2 SLP267 I1000 T11221139
KBCE 060853Z AUTO 27006KT 10SM CLR M10/M12 A3030 RMK AO2 SLP257 I1000 I3000 T11001117 53000
KBCE 060821Z AUTO 00000KT 10SM FEW002 M10/M12 A3029 RMK AO2 T11001117
KBCE 060753Z AUTO 28003KT 10SM CLR M10/M12 A3029 RMK AO2 SLP258 I1000 T11001117
KBCE 060653Z AUTO 26004KT 10SM FEW022 M07/M09 A3030 RMK AO2 SLP249 T10671089 400281117
KBCE 060644Z AUTO 25003KT 10SM SCT022 M07/M08 A3030 RMK AO2 T10671083
KBCE 060553Z AUTO 30004KT 10SM OVC018 M06/M07 A3030 RMK AO2 SLP249 I6001 T10611072 10000 21117 51011
KBCE 060507Z AUTO 27009KT 10SM BKN023 M09/M12 A3029 RMK AO2 T10941117
KBCE 060453Z AUTO 26007KT 10SM SCT023 M12/M13 A3029 RMK AO2 SLP269 I1000 T11171133
KBCE 060353Z AUTO 26008KT 10SM CLR M09/M11 A3028 RMK AO2 SLP256 I1000 T10891106
KBCE 060253Z AUTO 25006KT 10SM CLR M07/M08 A3026 RMK AO2 SLP246 I1001 I3001 T10721083 51014
KBCE 060153Z AUTO 27008KT 10SM CLR M05/M06 A3024 RMK AO2 SLP230 T10501061
KBCE 060053Z AUTO 27010KT 10SM CLR M03/M05 A3023 RMK AO2 SLP219 T10281050
KBCE 052353Z AUTO 28006KT 10SM CLR 00/M03 A3021 RMK AO2 SLP202 T00001033 10028 21006 51014
KBCE 052253Z AUTO 28010KT 10SM CLR 02/M03 A3019 RMK AO2 SLP191 T00171028
KBCE 052153Z AUTO 29008KT 10SM CLR 02/M03 A3017 RMK AO2 SLP181 T00221028
KBCE 052132Z AUTO 29008KT 10SM SCT019 02/M02 A3016 RMK AO2 T00221022
KBCE 052053Z AUTO 29007KT 10SM OVC019 02/M02 A3015 RMK AO2 SLP180 T00171017 53002
KBCE 051953Z AUTO 26007KT 10SM BKN017 BKN022 01/M02 A3014 RMK AO2 SLP176 T00111017
KBCE 051853Z AUTO 26005KT 10SM OVC018 01/M02 A3015 RMK AO2 SLP177 T00061017
KBCE 051835Z AUTO 28005KT 10SM BKN015 BKN025 BKN031 01/M02 A3015 RMK AO2 T00061017
KBCE 051753Z AUTO 29007KT 10SM CLR 00/M02 A3015 RMK AO2 SLP181 60000 I6003 T00001022 10000 21039 51025
KBCE 051653Z AUTO 30005KT 10SM CLR M01/M02 A3012 RMK AO2 SNE08 SLP170 P0000 T10061022
KBCE 051601Z AUTO 28006KT 3SM -SN BR FEW023 OVC031 M01/M02 A3010 RMK AO2 P0000 T10111022
KBCE 051553Z AUTO 29005KT 1SM -SN BR FEW023 OVC031 M01/M02 A3009 RMK AO2 SNB51 SLP163 P0000 T10111022
KBCE 051548Z AUTO 29004KT 1SM BR SCT024 OVC031 M02/M02 A3009 RMK AO2
KBCE 051544Z AUTO 28003KT 3/4SM BR SCT020 OVC029 M02/M02 A3009 RMK AO2 T10221022
KBCE 051530Z AUTO 23004KT 1/4SM FZFG FEW010 BKN023 OVC029 M03/M04 A3008 RMK AO2 T10281039
KBCE 051520Z AUTO 00000KT 1SM BR FEW016 BKN029 OVC033 M03/M04 A3007 RMK AO2 T10331039
KBCE 051510Z AUTO 21004KT 3/4SM BR SCT026 OVC033 M04/M04 A3006 RMK AO2 T10391044
KBCE 051507Z AUTO 22004KT 1SM BR BKN029 OVC033 M03/M04 A3006 RMK AO2 T10331039
KBCE 051504Z AUTO 22003KT 3/4SM BR OVC033 M03/M04 A3006 RMK AO2 T10281039
KBCE 051453Z AUTO 32003KT 1/4SM FZFG SCT017 BKN030 OVC035 M02/M03 A3005 RMK AO2 SLP150 60000 I1002 I3003 T10221033 53017
KBCE 051445Z AUTO 36003KT M1/4SM FZFG BKN015 OVC032 M02/M03 A3005 RMK AO2 I1002 T10221033
KBCE 051424Z AUTO 10004KT 1/4SM FZFG VV005 M02/M03 A3004 RMK AO2 I1002 T10171028
KBCE 051420Z AUTO 12005KT 1/4SM FZFG VV001 M02/M03 A3004 RMK AO2 I1002 T10171028
KBCE 051405Z AUTO 16006KT 1/4SM FZFG BKN002 OVC037 M02/M02 A3002 RMK AO2 I1001 T10171022
KBCE 051353Z AUTO 15004KT 1/4SM FZFG BKN008 OVC037 M01/M02 A3002 RMK AO2 SLP136 I1001 T10111022
KBCE 051335Z AUTO 14007KT 1/4SM FZFG SCT023 SCT042 OVC049 M02/M03 A3001 RMK AO2 I1000 T10171028
KBCE 051326Z AUTO 14006KT 3/4SM BR FEW037 OVC049 M03/M03 A3000 RMK AO2 T10281033
KBCE 051253Z AUTO 20007KT 10SM SCT037 BKN050 OVC060 M02/M03 A2999 RMK AO2 SNE02 SLP125 P0000 T10171028
KBCE 051228Z AUTO 22007KT 3SM BR BKN039 OVC049 M02/M03 A2999 RMK AO2 SNE02 P0000 T10221033
KBCE 051215Z AUTO 18004KT 1 3/4SM BR FEW015 BKN037 OVC047 M02/M02 A2999 RMK AO2 SNE02 P0000 T10171022
KBCE 051207Z AUTO 16004KT 9SM SCT015 BKN039 OVC050 M01/M02 A2999 RMK AO2 SNE02 P0000 T10111022
KBCE 051153Z AUTO 14005KT 6SM -SN BR BKN015 OVC039 M01/M02 A2999 RMK AO2 SLP125 P0000 60001 70033 I6002 T10111017 11006 21017 51008
KBCE 051138Z AUTO 00000KT 2SM -SN BR SCT007 OVC015 M01/M02 A2999 RMK AO2 P0000 T10061017
KBCE 051135Z AUTO 15004KT 1 1/2SM -SN BR BKN010 OVC015 M01/M02 A2999 RMK AO2 P0000 T10111017
KBCE 051124Z AUTO 15007KT 1/2SM SN FZFG BKN007 OVC015 M01/M02 A2998 RMK AO2 P0000 T10061017
KBCE 051117Z AUTO 13004KT 3/4SM -SN BR SCT009 OVC019 M01/M02 A2998 RMK AO2 P0000 T10111017
KBCE 051115Z AUTO 13004KT 1SM -SN BR BKN014 OVC019 M01/M02 A2998 RMK AO2 P0000 T10111017
KBCE 051107Z AUTO 13005KT 3/4SM -SN BR OVC019 M01/M02 A2998 RMK AO2 P0000 T10111017
KBCE 051053Z AUTO 14006KT 1 3/4SM -SN BR OVC021 M01/M02 A2998 RMK AO2 SNE00B27 SLP121 P0000 T10111017
KBCE 051010Z AUTO 13007KT 3SM BR FEW010 BKN025 OVC033 M01/M02 A2998 RMK AO2 SNE00 P0000 T10111017
KBCE 051003Z AUTO 15008KT 1 1/4SM BR FEW010 SCT018 OVC025 M01/M02 A2998 RMK AO2 SNE00 P0000 T10111017
KBCE 050953Z AUTO 15009KT 2SM -SN BR FEW012 BKN021 OVC026 M01/M02 A2998 RMK AO2 VIS 1 1/4V5 SLP117 P0001 T10111017
KBCE 050937Z AUTO 15008KT 1SM -SN BR SCT005 BKN012 OVC016 M01/M02 A2997 RMK AO2 P0001 T10111017
KBCE 050927Z AUTO 16004KT 1/2SM -SN FZFG BKN005 OVC014 M01/M02 A2997 RMK AO2 P0001 T10111017
KBCE 050911Z AUTO 14008KT 1/4SM -SN FZFG BKN003 OVC014 M01/M02 A2997 RMK AO2 P0000 T10111017